createdAt,value
2022-08-25T00:01:54.539Z,11.70
2022-08-25T00:04:25.586Z,10.50
2022-08-25T00:06:59.395Z,15.00
2022-08-25T00:09:34.028Z,7.50
2022-08-25T00:12:03.541Z,9.80
2022-08-25T00:14:34.481Z,8.40
2022-08-25T00:17:03.491Z,12.80
2022-08-25T00:19:35.032Z,14.20
2022-08-25T00:22:03.978Z,12.50
2022-08-25T00:24:32.402Z,8.40
2022-08-25T00:27:01.399Z,9.90
2022-08-25T00:29:31.312Z,7.10
2022-08-25T00:32:00.912Z,11.50
2022-08-25T00:34:33.413Z,10.50
2022-08-25T00:37:03.292Z,8.70
2022-08-25T00:39:33.317Z,13.80
2022-08-25T00:42:04.014Z,13.90
2022-08-25T00:44:35.204Z,16.00
2022-08-25T00:47:05.177Z,9.90
2022-08-25T00:49:37.347Z,8.20
2022-08-25T00:52:16.276Z,10.40
2022-08-25T00:54:49.368Z,10.70
2022-08-25T00:57:27.167Z,10.20
2022-08-25T01:00:09.003Z,14.20
2022-08-25T01:02:37.559Z,14.90
2022-08-25T01:05:08.037Z,12.40
2022-08-25T01:07:37.710Z,10.00
2022-08-25T01:10:09.203Z,10.70
2022-08-25T01:12:37.970Z,11.60
2022-08-25T01:15:09.563Z,8.40
2022-08-25T01:17:47.934Z,11.70
2022-08-25T01:20:18.880Z,13.40
2022-08-25T01:22:47.986Z,12.70
2022-08-25T01:25:33.810Z,9.30
2022-08-25T01:28:04.658Z,11.60
2022-08-25T01:30:34.565Z,8.50
2022-08-25T01:33:05.354Z,10.00
2022-08-25T01:35:34.253Z,11.50
2022-08-25T01:38:04.590Z,11.50
2022-08-25T01:40:33.990Z,13.60
2022-08-25T01:43:21.160Z,11.70
2022-08-25T01:45:50.129Z,13.40
2022-08-25T01:48:19.970Z,14.60
2022-08-25T01:50:48.247Z,11.50
2022-08-25T01:53:22.997Z,14.50
2022-08-25T01:55:51.371Z,13.10
2022-08-25T01:58:20.998Z,13.30
2022-08-25T02:00:53.744Z,17.20
2022-08-25T02:03:22.859Z,13.40
2022-08-25T02:05:52.908Z,15.10
2022-08-25T02:08:22.579Z,11.20
2022-08-25T02:10:51.996Z,11.20
2022-08-25T02:13:20.571Z,14.10
2022-08-25T02:15:57.205Z,15.40
2022-08-25T02:18:25.608Z,17.50
2022-08-25T02:20:53.911Z,15.70
2022-08-25T02:23:22.312Z,15.40
2022-08-25T02:25:50.684Z,19.20
2022-08-25T02:28:19.028Z,13.30
2022-08-25T02:30:47.567Z,14.40
2022-08-25T02:33:15.860Z,12.80
2022-08-25T02:35:44.463Z,15.30
2022-08-25T02:38:12.662Z,17.20
2022-08-25T02:40:41.288Z,12.20
2022-08-25T02:43:09.652Z,13.00
2022-08-25T02:45:38.028Z,12.80
2022-08-25T02:48:06.383Z,12.20
2022-08-25T02:50:34.845Z,12.10
2022-08-25T02:53:03.676Z,16.40
2022-08-25T02:55:32.029Z,10.60
2022-08-25T02:58:03.014Z,14.60
2022-08-25T03:00:31.363Z,15.10
2022-08-25T03:03:00.759Z,18.40
2022-08-25T03:05:29.228Z,14.90
2022-08-25T03:07:57.511Z,11.20
2022-08-25T03:10:27.204Z,14.00
2022-08-25T03:12:55.869Z,16.20
2022-08-25T03:15:25.112Z,15.00
2022-08-25T03:17:53.913Z,12.60
2022-08-25T03:20:23.432Z,13.90
2022-08-25T03:22:52.360Z,12.80
2022-08-25T03:25:39.307Z,18.90
2022-08-25T03:28:10.563Z,12.60
2022-08-25T03:30:39.342Z,12.80
2022-08-25T03:33:09.260Z,14.80
2022-08-25T03:35:37.734Z,11.20
2022-08-25T03:38:06.227Z,16.00
2022-08-25T03:40:34.800Z,16.40
2022-08-25T03:43:03.390Z,18.20
2022-08-25T03:45:31.795Z,21.40
2022-08-25T03:48:00.515Z,17.00
2022-08-25T03:50:29.071Z,22.70
2022-08-25T03:52:58.751Z,22.70
2022-08-25T03:55:28.271Z,18.90
2022-08-25T03:57:57.657Z,16.60
2022-08-25T04:00:25.944Z,24.00
2022-08-25T04:02:54.407Z,23.50
2022-08-25T04:05:22.698Z,15.20
2022-08-25T04:07:55.592Z,15.00
2022-08-25T04:10:24.641Z,22.10
2022-08-25T04:12:52.942Z,21.40
2022-08-25T04:15:21.462Z,17.20
2022-08-25T04:17:51.136Z,23.20
2022-08-25T04:20:20.499Z,20.00
2022-08-25T04:22:49.030Z,17.40
2022-08-25T04:25:17.546Z,15.20
2022-08-25T04:27:45.855Z,21.80
2022-08-25T04:30:15.859Z,18.40
2022-08-25T04:32:44.141Z,14.40
2022-08-25T04:35:12.450Z,18.50
2022-08-25T04:37:41.668Z,20.00
2022-08-25T04:40:12.365Z,21.60
2022-08-25T04:42:40.712Z,24.60
2022-08-25T04:45:09.769Z,18.80
2022-08-25T04:47:39.756Z,23.10
2022-08-25T04:50:09.197Z,23.10
2022-08-25T04:52:37.735Z,23.80
2022-08-25T04:55:06.945Z,26.10
2022-08-25T04:57:35.392Z,23.90
2022-08-25T05:00:06.170Z,20.90
2022-08-25T05:02:35.399Z,25.00
2022-08-25T05:05:03.975Z,32.20
2022-08-25T05:07:32.420Z,26.20
2022-08-25T05:10:01.043Z,32.10
2022-08-25T05:12:30.933Z,27.50
2022-08-25T05:15:22.133Z,27.60
2022-08-25T05:17:55.239Z,28.00
2022-08-25T05:20:25.103Z,33.90
2022-08-25T05:22:53.603Z,21.80
2022-08-25T05:25:21.902Z,38.40
2022-08-25T05:27:50.527Z,30.10
2022-08-25T05:30:19.215Z,34.80
2022-08-25T05:32:48.076Z,32.90
2022-08-25T05:35:16.508Z,23.50
2022-08-25T05:37:44.765Z,32.40
2022-08-25T05:40:14.306Z,25.20
2022-08-25T05:42:42.741Z,24.20
2022-08-25T05:45:16.736Z,27.60
2022-08-25T05:47:49.583Z,29.30
2022-08-25T05:50:19.207Z,26.30
2022-08-25T05:52:47.487Z,26.40
2022-08-25T05:55:16.015Z,35.90
2022-08-25T05:57:44.769Z,30.90
2022-08-25T06:00:14.891Z,27.70
2022-08-25T06:02:45.761Z,29.80
2022-08-25T06:05:17.214Z,29.80
2022-08-25T06:07:46.528Z,29.50
2022-08-25T06:10:15.941Z,28.50
2022-08-25T06:12:46.158Z,35.30
2022-08-25T06:15:17.928Z,28.60
2022-08-25T06:17:47.465Z,28.90
2022-08-25T06:20:18.821Z,24.90
2022-08-25T06:22:51.832Z,25.20
2022-08-25T06:25:23.315Z,26.90
2022-08-25T06:27:51.969Z,28.00
2022-08-25T06:30:25.706Z,24.90
2022-08-25T06:32:57.255Z,27.30
2022-08-25T06:35:26.021Z,19.40
2022-08-25T06:37:55.224Z,25.20
2022-08-25T06:40:24.747Z,19.70
2022-08-25T06:42:53.445Z,30.10
2022-08-25T06:45:21.934Z,28.20
2022-08-25T06:47:52.337Z,23.90
2022-08-25T06:50:21.074Z,25.70
2022-08-25T06:52:49.358Z,29.00
2022-08-25T06:55:18.101Z,26.40
2022-08-25T06:57:47.994Z,28.40
2022-08-25T07:00:17.208Z,24.80
2022-08-25T07:02:47.990Z,28.20
2022-08-25T07:05:26.915Z,26.60
2022-08-25T07:07:55.852Z,31.80
2022-08-25T07:10:24.438Z,24.30
2022-08-25T07:12:52.976Z,24.10
2022-08-25T07:15:21.369Z,30.30
2022-08-25T07:17:50.235Z,25.20
2022-08-25T07:20:19.533Z,30.60
2022-08-25T07:22:48.088Z,24.30
2022-08-25T07:25:17.858Z,25.10
2022-08-25T07:27:46.566Z,23.60
2022-08-25T07:30:16.651Z,26.90
2022-08-25T07:32:45.097Z,30.40
2022-08-25T07:35:18.816Z,29.70
2022-08-25T07:37:50.772Z,20.50
2022-08-25T07:40:21.815Z,29.40
2022-08-25T07:42:51.612Z,23.40
2022-08-25T07:45:29.217Z,21.20
2022-08-25T07:47:59.091Z,25.80
2022-08-25T07:50:30.857Z,31.60
2022-08-25T07:53:00.100Z,33.40
2022-08-25T07:55:29.975Z,30.30
2022-08-25T07:57:59.384Z,24.60
2022-08-25T08:00:29.698Z,24.10
2022-08-25T08:02:59.524Z,22.60
2022-08-25T08:05:28.806Z,29.30
2022-08-25T08:07:57.800Z,24.70
2022-08-25T08:10:53.566Z,25.60
2022-08-25T08:13:18.059Z,22.50
2022-08-25T08:15:47.899Z,25.10
2022-08-25T08:18:16.753Z,31.70
2022-08-25T08:20:48.318Z,27.10
2022-08-25T08:23:17.935Z,20.90
2022-08-25T08:25:46.256Z,39.10
2022-08-25T08:28:14.541Z,24.80
2022-08-25T08:30:53.686Z,24.70
2022-08-25T08:33:24.528Z,22.50
2022-08-25T08:36:00.995Z,26.20
2022-08-25T08:38:34.836Z,23.80
2022-08-25T08:41:54.276Z,23.80
2022-08-25T08:44:30.151Z,25.00
2022-08-25T08:47:05.276Z,27.80
2022-08-25T08:49:50.227Z,21.30
2022-08-25T08:52:24.306Z,22.60
2022-08-25T08:55:00.299Z,26.30
2022-08-25T08:57:31.404Z,30.70
2022-08-25T09:00:02.703Z,21.10
2022-08-25T09:02:39.413Z,26.90
2022-08-25T09:05:24.114Z,24.60
2022-08-25T09:07:57.084Z,21.40
2022-08-25T09:10:35.056Z,26.90
2022-08-25T09:13:15.406Z,22.50
2022-08-25T09:16:10.601Z,25.60
2022-08-25T09:18:54.588Z,22.30
2022-08-25T09:21:34.034Z,24.10
2022-08-25T09:24:21.052Z,21.60
2022-08-25T09:27:02.519Z,15.00
2022-08-25T09:29:42.286Z,16.20
2022-08-25T09:32:10.844Z,17.10
2022-08-25T09:34:46.109Z,18.50
2022-08-25T09:37:14.848Z,20.50
2022-08-25T09:39:43.174Z,18.50
2022-08-25T09:42:11.512Z,21.90
2022-08-25T09:44:43.115Z,13.30
2022-08-25T09:47:21.927Z,18.60
2022-08-25T09:49:56.640Z,16.40
2022-08-25T09:52:32.066Z,17.80
2022-08-25T09:55:20.573Z,16.80
2022-08-25T09:57:52.806Z,13.50
2022-08-25T10:00:24.935Z,13.70
2022-08-25T10:03:07.815Z,14.40
2022-08-25T10:05:46.536Z,12.00
2022-08-25T10:08:26.004Z,14.20
2022-08-25T10:10:57.056Z,17.10
2022-08-25T10:13:37.473Z,14.80
2022-08-25T10:16:20.011Z,15.40
2022-08-25T10:19:05.308Z,11.80
2022-08-25T10:21:34.218Z,9.80
2022-08-25T10:24:05.324Z,13.10
2022-08-25T10:26:48.228Z,11.90
2022-08-25T10:29:32.483Z,9.30
2022-08-25T10:32:12.130Z,11.80
2022-08-25T10:34:51.555Z,12.20
2022-08-25T10:37:35.192Z,12.60
2022-08-25T10:40:14.530Z,9.00
2022-08-25T10:43:00.375Z,11.20
2022-08-25T10:45:43.997Z,9.60
2022-08-25T10:48:42.435Z,6.00
2022-08-25T10:51:27.240Z,6.90
2022-08-25T10:54:07.144Z,9.20
2022-08-25T10:56:41.821Z,7.80
2022-08-25T10:59:38.748Z,15.00
2022-08-25T11:02:41.767Z,8.60
2022-08-25T11:05:17.305Z,8.60
2022-08-25T11:07:59.308Z,4.30
2022-08-25T11:10:36.604Z,6.00
2022-08-25T11:13:19.267Z,9.00
2022-08-25T11:16:16.158Z,8.30
2022-08-25T11:18:53.812Z,9.10
2022-08-25T11:21:27.109Z,8.30
2022-08-25T11:24:05.149Z,9.60
2022-08-25T11:26:37.998Z,12.40
2022-08-25T11:29:16.033Z,12.00
2022-08-25T11:31:52.778Z,6.00
2022-08-25T11:34:22.701Z,10.30
2022-08-25T11:36:54.607Z,7.50
2022-08-25T11:39:40.910Z,8.30
2022-08-25T11:42:25.746Z,11.50
2022-08-25T11:45:07.263Z,10.80
2022-08-25T11:47:49.786Z,5.40
2022-08-25T11:50:31.621Z,9.70
2022-08-25T11:53:16.341Z,8.50
2022-08-25T11:55:50.016Z,7.20
2022-08-25T11:58:40.625Z,5.00
2022-08-25T12:01:32.219Z,5.80
2022-08-25T12:04:16.840Z,11.70
2022-08-25T12:07:22.056Z,10.40
2022-08-25T12:10:22.720Z,7.40
2022-08-25T12:13:26.211Z,7.40
2022-08-25T12:16:00.885Z,5.20
2022-08-25T12:18:45.769Z,8.20
2022-08-25T12:21:30.982Z,8.10
2022-08-25T12:24:17.985Z,5.70
2022-08-25T12:26:53.720Z,4.30
2022-08-25T12:29:34.299Z,6.70
2022-08-25T12:32:20.703Z,7.30
2022-08-25T12:35:15.292Z,6.80
2022-08-25T12:38:00.532Z,8.60
2022-08-25T12:40:33.913Z,7.60
2022-08-25T12:43:07.776Z,6.70
2022-08-25T12:45:42.683Z,4.40
2022-08-25T12:48:41.727Z,5.30
2022-08-25T12:51:18.887Z,6.70
2022-08-25T12:53:50.817Z,7.10
2022-08-25T12:56:25.159Z,6.10
2022-08-25T12:59:03.343Z,6.00
2022-08-25T13:01:44.153Z,9.20
2022-08-25T13:04:33.178Z,7.40
2022-08-25T13:07:19.129Z,8.40
2022-08-25T13:10:20.644Z,7.00
2022-08-25T13:12:55.253Z,7.70
2022-08-25T13:15:34.089Z,8.50
2022-08-25T13:18:15.766Z,7.70
2022-08-25T13:20:46.706Z,4.80
2022-08-25T13:23:19.797Z,6.70
2022-08-25T13:25:52.063Z,6.70
2022-08-25T13:28:27.439Z,6.40
2022-08-25T13:31:16.678Z,5.80
2022-08-25T13:33:56.333Z,6.60
2022-08-25T13:36:51.883Z,6.60
2022-08-25T13:39:45.451Z,5.30
2022-08-25T13:42:16.924Z,7.20
2022-08-25T13:44:51.927Z,6.80
2022-08-25T13:47:43.475Z,6.00
2022-08-25T13:50:28.666Z,7.30
2022-08-25T13:52:59.912Z,7.10
2022-08-25T13:55:38.311Z,5.10
2022-08-25T13:58:24.868Z,4.90
2022-08-25T14:01:19.911Z,5.30
2022-08-25T14:03:54.632Z,5.00
2022-08-25T14:06:24.616Z,5.80
2022-08-25T14:09:15.722Z,7.00
2022-08-25T14:11:55.008Z,4.90
2022-08-25T14:14:35.226Z,9.20
2022-08-25T14:17:21.534Z,9.20
2022-08-25T14:19:57.120Z,6.20
2022-08-25T14:22:26.767Z,7.40
2022-08-25T14:24:55.518Z,6.30
2022-08-25T14:27:24.186Z,8.50
2022-08-25T14:29:53.041Z,6.60
2022-08-25T14:32:21.590Z,5.00
2022-08-25T14:34:50.197Z,6.60
2022-08-25T14:37:20.480Z,7.40
2022-08-25T14:39:54.445Z,5.40
2022-08-25T14:42:22.810Z,6.20
2022-08-25T14:44:54.656Z,5.30
2022-08-25T14:47:24.954Z,6.40
2022-08-25T14:49:53.286Z,7.90
2022-08-25T14:52:27.116Z,6.00
2022-08-25T14:54:56.746Z,5.80
2022-08-25T14:57:25.904Z,4.90
2022-08-25T14:59:54.216Z,3.00
2022-08-25T15:02:29.502Z,8.50
2022-08-25T15:05:05.287Z,7.80
2022-08-25T15:07:52.944Z,5.90
2022-08-25T15:10:21.923Z,5.70
2022-08-25T15:12:51.147Z,4.40
2022-08-25T15:15:25.865Z,6.50
2022-08-25T15:17:55.314Z,4.40
2022-08-25T15:20:27.810Z,5.60
2022-08-25T15:22:57.449Z,5.70
2022-08-25T15:25:26.582Z,159.10
2022-08-25T15:27:56.727Z,83.60
2022-08-25T15:30:30.672Z,11.60
2022-08-25T15:32:59.830Z,6.60
2022-08-25T15:35:29.160Z,5.30
2022-08-25T15:37:57.920Z,3.60
2022-08-25T15:40:26.328Z,4.30
2022-08-25T15:42:55.324Z,9.90
2022-08-25T15:45:24.594Z,6.90
2022-08-25T15:47:53.992Z,7.50
2022-08-25T15:50:26.098Z,7.40
2022-08-25T15:52:54.710Z,4.70
2022-08-25T15:55:23.081Z,7.20
2022-08-25T15:57:51.562Z,8.00
2022-08-25T16:00:21.662Z,8.60
2022-08-25T16:02:50.524Z,3.00
2022-08-25T16:05:25.780Z,6.60
2022-08-25T16:07:55.479Z,5.30
2022-08-25T16:10:23.980Z,8.80
2022-08-25T16:12:53.601Z,7.60
2022-08-25T16:15:23.239Z,5.00
2022-08-25T16:18:00.130Z,5.40
2022-08-25T16:20:30.233Z,7.00
2022-08-25T16:23:00.106Z,6.00
2022-08-25T16:25:28.700Z,4.10
2022-08-25T16:27:57.277Z,5.60
2022-08-25T16:30:25.832Z,4.80
2022-08-25T16:32:55.568Z,6.30
2022-08-25T16:35:24.363Z,3.00
2022-08-25T16:37:52.699Z,3.40
2022-08-25T16:40:23.915Z,4.60
2022-08-25T16:42:53.009Z,8.10
2022-08-25T16:45:21.961Z,4.80
2022-08-25T16:47:50.468Z,7.70
2022-08-25T16:50:18.980Z,5.30
2022-08-25T16:53:08.004Z,7.50
2022-08-25T16:58:16.246Z,8.60
2022-08-25T17:00:47.314Z,7.90
2022-08-25T17:03:16.792Z,9.90
2022-08-25T17:05:45.173Z,10.20
2022-08-25T17:08:29.180Z,5.60
2022-08-25T17:11:08.456Z,6.40
2022-08-25T17:13:38.569Z,9.10
2022-08-25T17:16:07.858Z,6.30
2022-08-25T17:18:37.785Z,4.90
2022-08-25T17:21:11.899Z,6.00
2022-08-25T17:23:48.285Z,7.40
2022-08-25T17:26:20.474Z,4.90
2022-08-25T17:28:57.037Z,8.80
2022-08-25T17:31:29.945Z,8.90
2022-08-25T17:33:59.199Z,7.30
2022-08-25T17:36:28.408Z,7.40
2022-08-25T17:38:57.139Z,8.00
2022-08-25T17:41:25.878Z,9.20
2022-08-25T17:43:54.532Z,10.10
2022-08-25T17:46:23.792Z,8.90
2022-08-25T17:48:53.400Z,10.30
2022-08-25T17:51:22.405Z,9.40
2022-08-25T17:53:52.175Z,6.10
2022-08-25T17:56:22.833Z,6.50
2022-08-25T17:58:54.664Z,10.00
2022-08-25T18:01:26.120Z,8.10
2022-08-25T18:03:56.846Z,8.20
2022-08-25T18:06:26.839Z,8.90
2022-08-25T18:08:59.274Z,9.40
2022-08-25T18:11:30.196Z,9.00
2022-08-25T18:13:59.498Z,7.00
2022-08-25T18:16:28.524Z,11.10
2022-08-25T18:18:57.177Z,8.90
2022-08-25T18:21:30.676Z,9.40
2022-08-25T18:24:03.009Z,8.60
2022-08-25T18:26:32.507Z,9.40
2022-08-25T18:29:01.584Z,10.40
2022-08-25T18:31:30.105Z,5.10
2022-08-25T18:33:59.030Z,7.20
2022-08-25T18:36:28.078Z,8.90
2022-08-25T18:39:14.782Z,7.30
2022-08-25T18:41:45.508Z,7.60
2022-08-25T18:44:15.565Z,13.60
2022-08-25T18:46:45.543Z,11.30
2022-08-25T18:49:16.641Z,9.20
2022-08-25T18:51:47.141Z,8.00
2022-08-25T18:54:23.212Z,7.90
2022-08-25T18:56:53.826Z,8.00
2022-08-25T18:59:23.755Z,6.00
2022-08-25T19:01:54.221Z,4.70
2022-08-25T19:04:31.293Z,10.10
2022-08-25T19:07:01.726Z,9.70
2022-08-25T19:09:32.260Z,5.20
2022-08-25T19:12:02.004Z,8.50
2022-08-25T19:14:31.087Z,10.00
2022-08-25T19:17:00.874Z,7.50
2022-08-25T19:19:30.765Z,9.20
2022-08-25T19:21:59.979Z,7.40
2022-08-25T19:24:29.253Z,8.30
2022-08-25T19:27:01.918Z,9.30
2022-08-25T19:29:31.060Z,6.00
2022-08-25T19:32:01.616Z,6.60
2022-08-25T19:34:34.670Z,6.00
2022-08-25T19:37:05.758Z,8.00
2022-08-25T19:39:39.177Z,7.00
2022-08-25T19:42:31.711Z,9.30
2022-08-25T19:44:58.986Z,7.20
2022-08-25T19:47:29.146Z,14.80
2022-08-25T19:49:58.181Z,7.30
2022-08-25T19:52:26.892Z,7.30
2022-08-25T19:54:57.072Z,8.40
2022-08-25T19:57:28.555Z,10.80
2022-08-25T20:00:15.256Z,11.60
2022-08-25T20:02:44.566Z,8.00
2022-08-25T20:05:14.376Z,7.90
2022-08-25T20:07:43.830Z,8.00
2022-08-25T20:10:14.541Z,9.40
2022-08-25T20:12:44.393Z,8.70
2022-08-25T20:15:16.436Z,6.80
2022-08-25T20:17:45.593Z,10.80
2022-08-25T20:20:18.231Z,6.40
2022-08-25T20:22:48.699Z,7.60
2022-08-25T20:25:19.591Z,5.80
2022-08-25T20:27:51.390Z,9.00
2022-08-25T20:30:22.605Z,11.90
2022-08-25T20:32:52.352Z,10.40
2022-08-25T20:35:21.349Z,6.90
2022-08-25T20:37:58.849Z,8.50
2022-08-25T20:40:29.971Z,8.80
2022-08-25T20:43:01.637Z,10.90
2022-08-25T20:45:31.691Z,6.90
2022-08-25T20:48:00.725Z,8.00
2022-08-25T20:50:29.221Z,8.70
2022-08-25T20:52:58.172Z,8.90
2022-08-25T20:55:28.385Z,9.20
2022-08-25T20:57:56.766Z,9.60
2022-08-25T21:00:25.279Z,7.70
2022-08-25T21:02:54.812Z,11.00
2022-08-25T21:05:23.205Z,9.50
2022-08-25T21:07:51.847Z,9.00
2022-08-25T21:10:20.728Z,8.30
2022-08-25T21:12:49.125Z,8.00
2022-08-25T21:15:23.003Z,10.60
2022-08-25T21:17:54.512Z,7.00
2022-08-25T21:20:24.590Z,8.40
2022-08-25T21:22:53.876Z,8.90
2022-08-25T21:25:22.625Z,8.30
2022-08-25T21:27:50.960Z,12.00
2022-08-25T21:30:19.518Z,9.00
2022-08-25T21:32:52.978Z,8.70
2022-08-25T21:35:23.059Z,6.60
2022-08-25T21:37:53.214Z,12.10
2022-08-25T21:40:22.886Z,10.20
2022-08-25T21:42:52.045Z,8.20
2022-08-25T21:51:43.347Z,8.70
2022-08-25T21:54:14.108Z,10.60
2022-08-25T21:56:45.592Z,10.10
2022-08-25T21:59:16.321Z,8.10
2022-08-25T22:01:45.390Z,10.80
2022-08-25T22:04:14.976Z,7.50
2022-08-25T22:06:43.710Z,6.60
2022-08-25T22:09:13.722Z,8.10
2022-08-25T22:11:44.100Z,11.20
2022-08-25T22:14:13.773Z,10.50
2022-08-25T22:16:43.276Z,9.90
2022-08-25T22:19:13.489Z,7.20
2022-08-25T22:21:44.564Z,11.10
2022-08-25T22:24:12.913Z,10.30
2022-08-25T22:26:42.104Z,9.10
2022-08-25T22:29:25.050Z,9.20
2022-08-25T22:31:57.837Z,9.60
2022-08-25T22:34:32.465Z,6.60
2022-08-25T22:37:03.710Z,12.20
2022-08-25T22:39:34.353Z,14.80
2022-08-25T22:42:03.264Z,14.10
2022-08-25T22:44:31.658Z,11.40
2022-08-25T22:47:00.128Z,45.20
2022-08-25T22:49:29.378Z,18.30
2022-08-25T22:51:58.505Z,14.10
2022-08-25T22:54:27.425Z,10.50
2022-08-25T22:56:55.841Z,11.00
2022-08-25T22:59:25.383Z,9.70
2022-08-25T23:01:54.866Z,9.70
2022-08-25T23:04:25.214Z,8.20
2022-08-25T23:06:53.672Z,10.60
2022-08-25T23:09:22.207Z,10.40
2022-08-25T23:11:51.213Z,10.50
2022-08-25T23:14:19.752Z,6.70
2022-08-25T23:16:50.291Z,9.20
2022-08-25T23:19:19.238Z,10.60
2022-08-25T23:22:02.780Z,10.20
2022-08-25T23:24:31.536Z,7.30
2022-08-25T23:27:01.152Z,7.90
2022-08-25T23:29:31.464Z,12.70
2022-08-25T23:32:00.195Z,9.40
2022-08-25T23:34:29.032Z,8.70
2022-08-25T23:36:57.818Z,12.50
2022-08-25T23:39:26.099Z,10.40
2022-08-25T23:41:54.391Z,7.10
2022-08-25T23:44:25.607Z,10.20
2022-08-25T23:46:54.457Z,8.50
2022-08-25T23:49:24.341Z,7.50
2022-08-25T23:51:55.120Z,9.30
2022-08-25T23:54:31.046Z,6.70
2022-08-25T23:57:01.688Z,9.30
2022-08-25T23:59:30.123Z,8.00
